This is the latest recevied weather packets stored in our database for station/object KF7OVD-WX. If no packets are shown the sender has not sent any weather packets the latest 10 day(s).
| Time | Temp. | Humidity | Pressure | Rain* | Wind** | Luminosity | Snow |
|---|---|---|---|---|---|---|---|
| 1777543862 | -2.22° C | 83% | 1022 hPa | 0 mm | - | - | - |
| 1777540821 | -1.67° C | 82% | 1022.1 hPa | 0 mm | - | - | - |
| 1777540539 | -1.67° C | 81% | 1022.1 hPa | 0 mm | - | - | - |
| 1777540216 | -1.11° C | 81% | 1022.2 hPa | 0 mm | - | - | - |
| 1777533946 | 1.11° C | 77% | 1022.8 hPa | 0 mm | - | - | - |
| 1777531546 | 2.22° C | 75% | 1022.6 hPa | 0 mm | - | - | - |
| 1777530014 | 2.78° C | 72% | 1022.5 hPa | 0 mm | - | - | - |
| 1777529729 | 2.78° C | 72% | 1022.5 hPa | 0 mm | - | - | - |
| 1777529124 | 3.33° C | 72% | 1022.4 hPa | 0 mm | - | - | - |
| 1777527617 | 3.89° C | 71% | 1022.1 hPa | 0 mm | - | - | - |
| 1777525516 | 4.44° C | 69% | 1022 hPa | 0 mm | - | - | - |
| 1777524628 | 5° C | 65% | 1022.1 hPa | 0 mm | - | - | - |
| 1777524324 | 5.56° C | 64% | 1022 hPa | 0 mm | - | - | - |
| 1777523131 | 6.11° C | 64% | 1021.9 hPa | 0 mm | - | - | - |
| 1777522526 | 6.67° C | 61% | 1021.9 hPa | 0 mm | - | - | - |
| 1777522223 | 6.67° C | 57% | 1021.6 hPa | 0 mm | - | - | - |
| 1777521922 | 7.22° C | 57% | 1021.6 hPa | 0 mm | - | - | - |
| 1777520129 | 8.89° C | 57% | 1021.3 hPa | 0 mm | - | - | - |
| 1777518617 | 10.56° C | 51% | 1021 hPa | 0 mm | - | - | - |
| 1777518050 | 11.11° C | 49% | 1021 hPa | 0 mm | - | - | - |
| 1777517728 | 11.11° C | 50% | 1021 hPa | 0 mm | - | - | - |
| 1777515929 | 13.33° C | 45% | 1020.7 hPa | 0 mm | - | - | - |
| 1777515627 | 13.89° C | 44% | 1020.7 hPa | 0 mm | - | - | - |
| 1777515023 | 13.89° C | 43% | 1020.7 hPa | 0 mm | - | - | - |
| 1777514418 | 15° C | 42% | 1020.7 hPa | 0 mm | - | - | - |
* Rain latest hour (hover to see other rain measurements)
** Current wind speed in m/s (hover to see current wind gust speed)